Dortmund, Germany

3:18 PM CET on February 06, 2016 (GMT +0100)
Dortmund | | Change Station
CLOSE
Current Station
Airport
Location: Dortmund,
Elevation: 417 ft
Nearby Weather Stations

Elev 417 ft 51.52 °N, 7.61 °E | Updated 28 minutes ago

Clear
Clear
52 °F
Feels Like 52 °F
N
22
Wind Variable Wind from SSW

Today
High -- | Low -- °F
--% Chance of Precip.
Yesterday
High -- | Low -- °F
Precip. -- in
Pressure 29.77 in
Visibility -9999.0 miles
Clouds
Dew Point 37 °F
Humidity 58%
Rainfall 0.00 in
Snow Depth Not available.
8:00 AM 5:26 PM
Waning Crescent, 5% visible
METAR EDLW 061350Z 21019KT CAVOK 11/03 Q1008
Pressure 29.77 in
Visibility -9999.0 miles
Clouds
Dew Point 37 °F
Humidity 58%
Rainfall 0.00 in
Snow Depth Not available.
8:00 AM 5:26 PM
Waning Crescent, 5% visible
METAR EDLW 061350Z 21019KT CAVOK 11/03 Q1008

10-Day Weather Forecast

Almanac

Astronomy

Feb. 06, 2016 Rise Set
Actual Time
Civil Twilight
Nautical Twilight
Astronomical Twilight
Moon
Length of Visible Light
Length of Day
Tomorrow will be .
, % of the Moon is Illuminated

Today's Extremes

Country Highs Country Lows

Community

WunderPhotos

Upload Photos

1,890,976 photos uploaded!

WunderBlog® & News

Nearby

Air Quality

  Air Quality AQ Index Pollutant
Not available.

Snow Depth

Station Depth Elevation

Earthquake Activity

City Distance Mag. Time & Date
Minimum magnitude displayed is 2.5.

Coastal Water Temperatures

Place Temperature

Stations

Nearby Weather Stations

Station Location Temp. Windchill Dew Point Humidity Wind Precip. Elev Updated Type